Time;durP1;ratioP1;P1;durP2;ratioP2;P2;SDS_P1;SDS_P2;PMS_P1;PMS_P2;Temp;Humidity;BMP_temperature;BMP_pressure;BME280_temperature;BME280_humidity;BME280_pressure;Samples;Min_cycle;Max_cycle;Signal;HPM_P1;HPM_P2
2022/11/23 00:01:33;;;;;;;12.10;5.78;;;;;;;8.52;84.36;100154.31;5006897;28;20027;-93
2022/11/23 00:04:10;;;;;;;13.23;5.65;;;;;;;8.46;84.49;100154.63;5006432;28;20026;-92
2022/11/23 00:06:36;;;;;;;12.80;6.43;;;;;;;8.46;84.87;100153.78;5006453;28;20105;-91
2022/11/23 00:09:01;;;;;;;12.48;7.88;;;;;;;8.50;84.15;100156.13;5007042;28;20507;-92
2022/11/23 00:11:27;;;;;;;13.23;6.78;;;;;;;8.54;84.66;100141.34;5007025;28;20498;-92
2022/11/23 00:13:53;;;;;;;12.55;6.80;;;;;;;8.54;85.06;100141.34;5026880;28;20033;-92
2022/11/23 00:16:24;;;;;;;12.25;6.05;;;;;;;8.50;85.31;100145.00;5010043;28;20026;-93
2022/11/23 00:18:55;;;;;;;10.60;6.47;;;;;;;8.50;84.87;100135.50;5010084;28;20136;-92
2022/11/23 00:21:21;;;;;;;15.57;8.43;;;;;;;8.51;84.86;100146.66;4993093;28;20033;-92
2022/11/23 00:23:47;;;;;;;8.00;6.80;;;;;;;8.49;84.88;100143.31;5026543;28;20030;-91
2022/11/23 00:26:12;;;;;;;17.90;8.20;;;;;;;8.55;84.48;100153.31;5026835;28;20496;-91
2022/11/23 00:28:39;;;;;;;8.10;5.57;;;;;;;8.53;84.51;100137.09;5026470;28;20030;-91
2022/11/23 00:31:13;;;;;;;9.45;6.55;;;;;;;8.52;84.65;100133.69;5009925;28;20033;-91
2022/11/23 00:33:38;;;;;;;11.30;5.68;;;;;;;8.57;84.54;100128.31;5026191;28;20100;-93
2022/11/23 00:36:09;;;;;;;14.73;6.20;;;;;;;8.65;84.14;100125.34;5009742;28;20030;-91
2022/11/23 00:38:34;;;;;;;11.48;7.28;;;;;;;8.65;84.03;100120.19;4993102;28;20030;-91
2022/11/23 00:41:05;;;;;;;11.25;5.10;;;;;;;8.62;84.37;100105.72;5009843;28;20530;-92
2022/11/23 00:43:31;;;;;;;7.93;5.05;;;;;;;8.58;83.67;100115.34;4993100;28;20427;-91
2022/11/23 00:46:11;;;;;;;19.55;6.05;;;;;;;8.45;83.91;100105.69;5009708;28;20109;-92
2022/11/23 00:48:37;;;;;;;16.20;7.60;;;;;;;8.50;83.83;100116.63;4993825;28;20050;-91
2022/11/23 00:51:07;;;;;;;8.82;6.30;;;;;;;8.49;84.22;100113.22;5009302;28;20526;-91
2022/11/23 00:53:32;;;;;;;7.05;5.20;;;;;;;8.48;84.24;100121.88;5009570;28;20389;-92
2022/11/23 00:55:58;;;;;;;12.93;5.38;;;;;;;8.48;84.81;100124.44;5009434;28;20057;-93
2022/11/23 00:58:24;;;;;;;12.60;5.15;;;;;;;8.59;83.77;100093.81;4992941;28;20026;-93
2022/11/23 01:00:49;;;;;;;15.30;5.25;;;;;;;8.48;83.69;100090.09;5009247;28;20066;-92
2022/11/23 01:03:15;;;;;;;10.35;5.43;;;;;;;8.55;83.75;100086.28;5009214;28;20507;-92
2022/11/23 01:05:41;;;;;;;14.45;6.75;;;;;;;8.58;83.27;100081.00;4992583;28;20030;-91
2022/11/23 01:08:06;;;;;;;12.38;5.00;;;;;;;8.45;83.14;100061.88;5025881;28;20100;-91
2022/11/23 01:10:32;;;;;;;11.75;7.05;;;;;;;8.51;83.97;100069.31;4992817;28;20030;-91
2022/11/23 01:12:58;;;;;;;10.15;4.93;;;;;;;8.57;84.51;100074.19;4992819;28;20034;-92
2022/11/23 01:15:23;;;;;;;6.50;5.55;;;;;;;8.51;84.57;100046.94;4992456;28;20109;-90
2022/11/23 01:17:49;;;;;;;9.88;6.28;;;;;;;8.55;83.59;100065.66;4992762;28;20026;-92
2022/11/23 01:20:14;;;;;;;21.27;6.40;;;;;;;8.58;82.97;100057.81;4992314;28;20053;-92
2022/11/23 01:22:40;;;;;;;10.63;7.40;;;;;;;8.60;83.11;100063.72;5008880;28;20109;-90
2022/11/23 01:25:06;;;;;;;11.05;5.55;;;;;;;8.55;83.18;100070.81;4992520;28;20045;-91
2022/11/23 01:27:32;;;;;;;9.68;6.00;;;;;;;8.49;82.62;100060.81;4992383;28;20030;-92
2022/11/23 01:29:57;;;;;;;17.05;6.95;;;;;;;8.53;83.38;100067.50;5025275;28;20096;-91
2022/11/23 01:32:22;;;;;;;15.20;5.18;;;;;;;8.60;82.26;100064.53;5008665;28;20034;-91
2022/11/23 01:34:48;;;;;;;9.52;5.18;;;;;;;8.61;82.79;100065.38;5008686;28;20099;-92
2022/11/23 01:37:13;;;;;;;18.20;7.57;;;;;;;8.62;82.69;100049.00;5025167;28;20038;-91
2022/11/23 01:39:39;;;;;;;8.48;4.97;;;;;;;8.58;82.73;100044.91;5008773;28;20045;-92
2022/11/23 01:42:07;;;;;;;9.65;6.43;;;;;;;8.48;82.93;100041.94;5008490;28;20041;-91
2022/11/23 01:44:34;;;;;;;6.40;4.07;;;;;;;8.57;83.24;100058.72;5008055;28;20460;-91
2022/11/23 01:47:00;;;;;;;7.45;5.18;;;;;;;8.54;83.84;100061.41;5008190;28;20050;-91
2022/11/23 01:49:38;;;;;;;10.48;5.18;;;;;;;8.47;83.85;100037.72;5008131;28;20034;-91
2022/11/23 01:52:07;;;;;;;9.30;4.82;;;;;;;8.58;83.85;100034.59;5024137;28;20097;-91
2022/11/23 01:54:36;;;;;;;11.93;5.53;;;;;;;8.52;83.56;100025.41;5024558;28;20031;-91
2022/11/23 01:57:08;;;;;;;8.80;5.05;;;;;;;8.62;83.12;100038.69;4991680;28;20040;-90
2022/11/23 01:59:33;;;;;;;13.15;4.72;;;;;;;8.55;82.80;100034.72;4991560;28;20022;-92
2022/11/23 02:01:59;;;;;;;7.97;4.97;;;;;;;8.46;83.37;100023.16;5024697;28;20034;-91
2022/11/23 02:04:30;;;;;;;12.13;6.85;;;;;;;8.43;82.99;99997.50;4991563;28;20038;-91
2022/11/23 02:06:55;;;;;;;10.82;5.40;;;;;;;8.66;82.59;100039.38;5007915;28;20131;-90
2022/11/23 02:09:21;;;;;;;10.13;5.10;;;;;;;8.57;82.74;100038.09;5008023;28;20472;-91
2022/11/23 02:11:46;;;;;;;13.43;5.78;;;;;;;8.62;82.73;100047.25;5024492;28;20030;-90
2022/11/23 02:14:12;;;;;;;11.18;5.45;;;;;;;8.71;82.86;100051.09;5008083;28;20026;-91
2022/11/23 02:16:37;;;;;;;12.15;7.10;;;;;;;8.70;81.96;100046.03;5007689;28;20097;-91
2022/11/23 02:19:03;;;;;;;17.17;5.43;;;;;;;8.75;82.18;100037.16;5024027;28;20025;-92
2022/11/23 02:21:28;;;;;;;10.68;5.05;;;;;;;8.74;81.91;100037.22;5007597;28;20030;-92
2022/11/23 02:24:13;;;;;;;12.98;6.68;;;;;;;8.72;81.78;100032.16;5007950;28;20038;-91
2022/11/23 02:26:39;;;;;;;11.68;6.57;;;;;;;8.61;82.43;100024.94;5023583;28;20061;-92
2022/11/23 02:29:22;;;;;;;12.85;5.57;;;;;;;8.74;82.76;100058.69;5007617;28;20485;-91
2022/11/23 02:31:47;;;;;;;12.13;6.95;;;;;;;8.74;82.51;100055.28;4989277;28;20028;-91
2022/11/23 02:34:13;;;;;;;14.10;6.75;;;;;;;8.70;82.53;100067.50;5007411;28;20023;-90
2022/11/23 02:36:40;;;;;;;12.90;6.43;;;;;;;8.78;82.36;100067.13;5023989;28;20030;-91
2022/11/23 02:39:07;;;;;;;13.82;6.10;;;;;;;8.59;82.21;100038.84;5007647;28;20089;-90
2022/11/23 02:41:49;;;;;;;7.85;5.20;;;;;;;8.71;82.56;100071.75;4992165;28;20384;-91
2022/11/23 02:44:36;;;;;;;10.38;6.20;;;;;;;8.68;83.24;100066.75;5007526;28;20097;-91
2022/11/23 02:47:02;;;;;;;9.80;7.00;;;;;;;8.47;83.10;100029.97;5006689;28;20129;-93
2022/11/23 02:49:27;;;;;;;9.02;5.38;;;;;;;8.68;83.46;100064.16;5007289;28;20114;-90
2022/11/23 02:51:53;;;;;;;8.73;6.63;;;;;;;8.56;84.14;100046.72;4991096;28;20077;-91
2022/11/23 02:54:18;;;;;;;10.73;6.07;;;;;;;8.57;84.52;100038.91;5024002;28;20030;-91
2022/11/23 02:56:44;;;;;;;13.00;6.50;;;;;;;8.64;84.25;100054.91;5007373;28;20038;-91
2022/11/23 02:59:09;;;;;;;13.75;7.00;;;;;;;8.65;83.78;100050.56;5007177;28;20043;-92
2022/11/23 03:01:35;;;;;;;8.60;4.82;;;;;;;8.73;82.76;100058.75;5023365;28;20034;-91
2022/11/23 03:04:01;;;;;;;12.38;6.18;;;;;;;8.79;82.17;100048.16;4990964;28;20038;-91
2022/11/23 03:06:26;;;;;;;7.97;6.43;;;;;;;8.66;83.05;100036.78;5007680;28;20547;-91
2022/11/23 03:08:51;;;;;;;7.70;4.93;;;;;;;8.69;83.18;100042.63;5007415;28;20046;-91
2022/11/23 03:11:17;;;;;;;7.65;4.93;;;;;;;8.65;82.96;100029.94;5023748;28;20038;-91
2022/11/23 03:13:42;;;;;;;15.48;7.50;;;;;;;8.69;83.68;100044.38;4990748;28;20385;-91
2022/11/23 03:16:08;;;;;;;13.95;6.85;;;;;;;8.48;83.30;100017.91;5007033;28;20034;-92
2022/11/23 03:18:52;;;;;;;13.68;6.25;;;;;;;8.67;83.39;100059.91;4990700;28;20031;-91
2022/11/23 03:21:18;;;;;;;10.63;5.90;;;;;;;8.61;83.83;100062.78;5007135;28;20026;-92
2022/11/23 03:23:44;;;;;;;9.65;6.57;;;;;;;8.64;83.39;100075.53;5023401;28;20041;-90
2022/11/23 03:26:09;;;;;;;10.55;5.45;;;;;;;8.63;83.50;100095.31;5007168;28;20041;-91
2022/11/23 03:28:35;;;;;;;10.63;5.75;;;;;;;8.61;83.60;100096.31;5023379;28;20026;-91
2022/11/23 03:31:00;;;;;;;7.30;5.43;;;;;;;8.67;83.76;100101.19;4990380;28;20042;-91
2022/11/23 03:33:26;;;;;;;11.77;6.07;;;;;;;8.61;83.58;100086.84;5007000;28;20538;-91
2022/11/23 03:35:51;;;;;;;8.52;5.70;;;;;;;8.76;83.41;100094.75;5006891;28;20034;-92
2022/11/23 03:38:17;;;;;;;11.30;5.70;;;;;;;8.72;83.42;100090.63;5006653;28;20481;-90
2022/11/23 03:40:45;;;;;;;8.98;5.18;;;;;;;8.69;82.83;100089.03;4990546;28;20038;-90
2022/11/23 03:43:12;;;;;;;7.93;5.32;;;;;;;8.74;82.28;100093.94;5006464;28;20027;-91
2022/11/23 03:45:37;;;;;;;7.63;5.57;;;;;;;8.78;82.76;100104.06;4973946;28;20431;-92
2022/11/23 03:48:03;;;;;;;13.07;7.25;;;;;;;8.71;83.13;100102.69;5009243;28;20050;-91
2022/11/23 03:50:28;;;;;;;8.07;5.68;;;;;;;8.66;82.41;100071.16;5010315;28;20037;-91
2022/11/23 03:52:54;;;;;;;9.25;5.90;;;;;;;8.67;82.92;100096.03;4978113;28;20026;-91
2022/11/23 03:55:20;;;;;;;11.75;7.20;;;;;;;8.74;83.03;100102.53;5026652;28;20031;-90
2022/11/23 03:57:48;;;;;;;11.57;5.80;;;;;;;8.73;83.15;100110.34;4994282;28;20084;-92
2022/11/23 04:00:14;;;;;;;14.13;6.63;;;;;;;8.74;83.10;100112.84;4994104;28;20096;-92
2022/11/23 04:02:41;;;;;;;11.38;6.18;;;;;;;8.74;82.63;100092.22;5010608;28;20484;-92
2022/11/23 04:05:07;;;;;;;10.20;6.18;;;;;;;8.78;82.71;100095.50;4994378;28;20041;-92
2022/11/23 04:07:32;;;;;;;16.20;6.43;;;;;;;8.77;82.09;100061.13;5009854;28;20481;-90
2022/11/23 04:09:58;;;;;;;8.70;5.35;;;;;;;8.95;81.66;100059.38;5009855;28;20026;-89
2022/11/23 04:12:24;;;;;;;12.73;6.93;;;;;;;8.83;81.66;100042.75;5009563;28;20030;-90
2022/11/23 04:14:50;;;;;;;8.88;6.50;;;;;;;9.09;81.35;100068.97;5025516;28;20018;-90
2022/11/23 04:17:15;;;;;;;8.98;5.32;;;;;;;9.16;81.19;100044.53;5009351;28;20504;-89
2022/11/23 04:19:41;;;;;;;16.80;5.88;;;;;;;9.27;80.15;100057.69;5009481;28;20031;-89
2022/11/23 04:22:06;;;;;;;15.25;5.95;;;;;;;9.27;80.12;100062.84;5025792;28;20037;-89
2022/11/23 04:24:32;;;;;;;9.80;5.53;;;;;;;9.28;80.30;100077.44;5009305;28;20026;-90
2022/11/23 04:26:57;;;;;;;10.63;5.97;;;;;;;9.19;79.64;100068.41;4993146;28;20026;-89
2022/11/23 04:29:23;;;;;;;8.90;4.93;;;;;;;9.06;80.68;100069.97;5008727;28;20416;-90
2022/11/23 04:31:48;;;;;;;9.48;5.30;;;;;;;9.22;80.91;100056.25;5009391;28;20034;-89
2022/11/23 04:34:13;;;;;;;12.05;5.57;;;;;;;9.28;79.74;100059.34;5025866;28;20034;-89
2022/11/23 04:36:39;;;;;;;13.38;6.78;;;;;;;9.23;79.79;100069.06;4994188;28;20689;-90
2022/11/23 04:39:05;;;;;;;10.77;5.50;;;;;;;9.20;79.77;100062.34;5009225;28;20034;-89
2022/11/23 04:41:30;;;;;;;10.00;5.60;;;;;;;9.29;79.10;100079.09;5008953;28;20034;-89
2022/11/23 04:43:56;;;;;;;10.35;6.47;;;;;;;9.20;79.00;100084.72;4992451;28;20030;-91
2022/11/23 04:46:22;;;;;;;8.50;5.13;;;;;;;9.01;79.70;100053.03;5009646;28;20032;-81
2022/11/23 04:48:47;;;;;;;24.77;6.22;;;;;;;9.06;80.51;100061.41;5010996;28;20053;-81
2022/11/23 04:51:13;;;;;;;9.15;6.80;;;;;;;9.00;80.74;100059.13;5028270;28;20030;-82
2022/11/23 04:53:39;;;;;;;11.93;7.55;;;;;;;8.90;81.62;100048.44;4995495;28;20026;-81
2022/11/23 04:56:05;;;;;;;29.40;5.95;;;;;;;8.96;81.06;100047.31;4995260;28;20475;-81
2022/11/23 04:58:30;;;;;;;11.45;7.45;;;;;;;8.64;80.76;99998.16;5009852;28;20045;-82
2022/11/23 05:00:57;;;;;;;9.40;7.13;;;;;;;8.90;81.46;100054.44;5012955;28;20054;-82
2022/11/23 05:03:22;;;;;;;18.52;10.10;;;;;;;8.88;81.32;100048.50;5011595;28;20087;-82
2022/11/23 05:05:48;;;;;;;11.82;7.40;;;;;;;8.92;81.77;100044.03;4995251;28;20030;-82
2022/11/23 05:08:13;;;;;;;14.88;9.80;;;;;;;8.81;81.20;100031.69;5010101;28;20029;-83
2022/11/23 05:10:39;;;;;;;8.27;6.07;;;;;;;8.86;81.63;100046.94;5010960;28;20069;-83
2022/11/23 05:13:04;;;;;;;16.42;8.63;;;;;;;8.68;81.78;100035.81;5026196;28;20033;-83
2022/11/23 05:15:30;;;;;;;10.68;6.72;;;;;;;8.75;82.27;100054.34;5010369;28;20037;-83
2022/11/23 05:18:05;;;;;;;11.07;7.20;;;;;;;8.73;82.37;100054.44;5010383;28;20491;-84
2022/11/23 05:20:31;;;;;;;18.50;8.32;;;;;;;8.59;81.59;100041.41;5009792;28;20057;-84
2022/11/23 05:23:00;;;;;;;11.10;5.47;;;;;;;8.74;81.97;100076.72;5027429;28;20025;-95
2022/11/23 05:25:25;;;;;;;13.70;6.45;;;;;;;8.69;82.60;100068.41;4995784;28;20422;-86
2022/11/23 05:27:51;;;;;;;12.25;5.60;;;;;;;8.61;82.42;100060.22;5012361;28;20037;-81
2022/11/23 05:30:17;;;;;;;10.50;6.00;;;;;;;8.75;82.72;100088.75;5011550;28;20083;-80
2022/11/23 05:32:42;;;;;;;16.80;6.03;;;;;;;8.68;82.68;100071.91;5010608;28;20061;-90
2022/11/23 05:35:08;;;;;;;16.33;8.82;;;;;;;8.82;81.74;100084.09;5013770;28;20026;-89
2022/11/23 05:37:34;;;;;;;12.20;6.78;;;;;;;8.71;81.97;100064.00;5011189;28;20101;-90
2022/11/23 05:39:59;;;;;;;17.83;7.35;;;;;;;8.54;82.94;100035.63;5012609;28;20030;-89
2022/11/23 05:42:25;;;;;;;21.60;10.52;;;;;;;8.71;82.64;100056.25;4993569;28;20030;-84
2022/11/23 05:44:50;;;;;;;12.35;7.15;;;;;;;8.87;82.16;100077.81;4993955;28;20471;-89
2022/11/23 05:47:16;;;;;;;12.35;8.80;;;;;;;8.74;82.36;100069.00;5003393;28;20053;-88
2022/11/23 05:49:41;;;;;;;13.55;7.60;;;;;;;8.79;82.57;100077.34;5009775;28;20042;-85
2022/11/23 05:52:07;;;;;;;18.23;11.88;;;;;;;8.74;81.93;100076.72;5010309;28;20037;-87
2022/11/23 05:54:32;;;;;;;15.25;7.63;;;;;;;8.76;82.12;100087.84;5010504;28;20115;-89
2022/11/23 05:56:58;;;;;;;15.18;8.20;;;;;;;8.74;82.63;100096.53;5009975;28;20029;-90
2022/11/23 05:59:23;;;;;;;12.93;8.35;;;;;;;8.74;82.20;100092.22;5010615;28;20462;-87
2022/11/23 06:01:49;;;;;;;18.05;7.30;;;;;;;8.71;82.35;100087.22;5008905;28;20033;-86
2022/11/23 06:04:14;;;;;;;15.43;9.07;;;;;;;8.73;82.66;100082.81;5010328;28;20557;-88
2022/11/23 06:06:40;;;;;;;15.50;8.98;;;;;;;8.64;82.08;100044.59;5011142;28;20022;-84
2022/11/23 06:09:05;;;;;;;13.05;7.35;;;;;;;8.85;81.65;100083.97;5008083;28;20034;-86
2022/11/23 06:11:31;;;;;;;11.02;6.72;;;;;;;8.86;82.05;100095.94;4993130;28;20404;-90
2022/11/23 06:13:57;;;;;;;12.35;7.55;;;;;;;8.90;81.30;100098.28;5009052;28;20065;-91
2022/11/23 06:16:22;;;;;;;18.63;8.77;;;;;;;8.93;81.06;100086.97;5008675;28;20041;-90
2022/11/23 06:18:48;;;;;;;7.40;5.97;;;;;;;8.89;81.03;100075.16;4991027;28;20030;-88
2022/11/23 06:21:16;;;;;;;13.38;7.55;;;;;;;8.96;81.15;100086.00;5006976;28;20459;-90
2022/11/23 06:23:42;;;;;;;14.25;7.22;;;;;;;8.89;81.67;100085.47;5009743;28;20038;-82
2022/11/23 06:26:07;;;;;;;10.95;7.35;;;;;;;8.96;80.82;100098.91;5009296;28;20049;-90
2022/11/23 06:28:35;;;;;;;18.35;7.30;;;;;;;8.95;81.19;100085.16;5009511;28;20033;-88
2022/11/23 06:31:01;;;;;;;11.95;6.82;;;;;;;8.95;80.71;100082.59;4993450;28;20022;-90
2022/11/23 06:33:26;;;;;;;12.60;8.23;;;;;;;9.01;80.79;100084.00;5009761;28;20021;-93
2022/11/23 06:35:56;;;;;;;20.10;5.65;;;;;;;9.06;79.63;100087.19;5015178;28;20092;-82
2022/11/23 06:38:21;;;;;;;9.98;5.70;;;;;;;9.04;79.64;100073.50;5025080;28;20029;-80
2022/11/23 06:40:47;;;;;;;9.77;6.15;;;;;;;9.07;80.17;100078.53;5008770;28;20030;-81
2022/11/23 06:43:12;;;;;;;10.00;7.20;;;;;;;8.88;80.43;100043.34;4992634;28;20033;-81
2022/11/23 06:45:38;;;;;;;11.75;6.70;;;;;;;9.17;80.35;100085.72;5010418;28;20486;-87
2022/11/23 06:48:04;;;;;;;13.05;7.50;;;;;;;9.12;79.78;100090.28;4973222;28;20057;-85
2022/11/23 06:50:29;;;;;;;10.80;6.50;;;;;;;9.07;79.63;100088.88;5008361;28;20029;-81
2022/11/23 06:52:55;;;;;;;11.57;6.93;;;;;;;9.05;80.24;100086.38;5009426;28;20038;-85
2022/11/23 06:55:21;;;;;;;13.80;6.13;;;;;;;9.13;80.18;100094.53;5010348;28;20028;-94
2022/11/23 06:57:47;;;;;;;10.52;6.32;;;;;;;9.17;80.02;100090.06;5011517;28;20026;-92
2022/11/23 07:00:13;;;;;;;11.55;7.90;;;;;;;9.09;80.28;100087.03;5001904;28;20109;-89
2022/11/23 07:02:39;;;;;;;14.23;7.07;;;;;;;9.20;80.19;100110.53;5009410;28;20029;-88
2022/11/23 07:05:05;;;;;;;21.40;9.48;;;;;;;9.11;80.64;100101.50;4993614;28;20030;-87
2022/11/23 07:07:31;;;;;;;13.60;5.72;;;;;;;9.12;81.16;100105.75;5007296;28;20037;-92
2022/11/23 07:09:56;;;;;;;12.68;7.30;;;;;;;9.10;81.47;100096.44;4994024;28;20057;-90
2022/11/23 07:12:22;;;;;;;15.30;8.38;;;;;;;9.13;80.65;100089.34;5003514;28;20066;-94
2022/11/23 07:14:47;;;;;;;12.38;6.53;;;;;;;9.23;79.77;100094.03;5008338;28;20022;-84
2022/11/23 07:17:13;;;;;;;70.03;33.70;;;;;;;9.17;80.24;100096.06;5009601;28;20034;-91
2022/11/23 07:19:38;;;;;;;47.50;23.58;;;;;;;9.17;80.80;100110.69;4992355;28;20037;-90
2022/11/23 07:22:04;;;;;;;10.98;6.55;;;;;;;9.18;80.53;100115.78;5023574;28;20037;-96
2022/11/23 07:24:29;;;;;;;11.80;6.22;;;;;;;9.14;80.07;100124.59;4996724;23;20085;-80
2022/11/23 07:26:55;;;;;;;9.88;5.32;;;;;;;9.22;78.46;100126.78;4973379;28;20038;-90
2022/11/23 07:29:20;;;;;;;16.83;6.93;;;;;;;8.96;79.36;100089.41;4973586;28;20031;-82
2022/11/23 07:31:46;;;;;;;8.73;6.60;;;;;;;9.23;79.82;100122.44;4969571;28;20032;-82
2022/11/23 07:34:11;;;;;;;19.48;6.63;;;;;;;9.23;79.39;100115.53;4981022;28;20074;-91
2022/11/23 07:36:37;;;;;;;23.83;6.07;;;;;;;9.25;79.65;100105.97;4959137;28;20061;-86
2022/11/23 07:39:02;;;;;;;11.50;6.43;;;;;;;9.10;79.42;100078.38;4973804;28;20567;-85
2022/11/23 07:41:28;;;;;;;11.93;7.43;;;;;;;9.34;79.45;100112.38;4973406;28;20054;-92
2022/11/23 07:43:53;;;;;;;12.98;5.55;;;;;;;9.34;79.12;100110.66;4972625;28;20098;-91
2022/11/23 07:46:19;;;;;;;18.05;6.82;;;;;;;9.33;78.96;100108.97;4957056;28;20129;-88
2022/11/23 07:48:45;;;;;;;16.13;7.38;;;;;;;9.41;78.78;100099.09;4948583;28;20429;-90
2022/11/23 07:51:10;;;;;;;15.75;7.80;;;;;;;9.29;78.92;100098.91;4974419;28;20536;-83
2022/11/23 07:53:35;;;;;;;14.98;5.63;;;;;;;9.14;78.72;100074.72;4969057;28;20031;-87
2022/11/23 07:56:01;;;;;;;18.27;11.52;;;;;;;9.35;78.37;100107.19;4957072;28;20190;-88
2022/11/23 07:58:26;;;;;;;110.90;49.30;;;;;;;9.43;78.60;100101.59;4988817;28;20034;-87
2022/11/23 08:00:52;;;;;;;22.33;12.45;;;;;;;9.44;79.18;100111.88;4970344;28;20031;-84
2022/11/23 08:03:18;;;;;;;10.65;6.70;;;;;;;9.41;79.34;100101.69;4960545;28;20031;-87
2022/11/23 08:05:43;;;;;;;18.27;9.30;;;;;;;9.40;78.33;100087.09;4972731;28;20027;-89
2022/11/23 08:08:10;;;;;;;8.90;4.70;;;;;;;9.47;77.82;100090.22;4966726;28;20038;-87
2022/11/23 08:10:36;;;;;;;16.50;6.35;;;;;;;9.47;78.04;100101.38;4971162;28;20026;-86
2022/11/23 08:13:03;;;;;;;16.33;5.57;;;;;;;9.47;78.02;100109.09;4972046;28;20039;-90
2022/11/23 08:15:28;;;;;;;12.50;6.45;;;;;;;9.51;77.76;100104.59;4972831;28;20031;-94
2022/11/23 08:17:58;;;;;;;7.25;4.85;;;;;;;9.40;76.94;100071.63;4990231;28;20033;-82
2022/11/23 08:20:24;;;;;;;11.48;5.88;;;;;;;9.54;77.31;100088.09;4971865;28;20019;-86
2022/11/23 08:22:49;;;;;;;7.43;4.95;;;;;;;9.59;76.38;100101.63;4958720;28;20512;-89
2022/11/23 08:25:15;;;;;;;16.40;6.90;;;;;;;9.61;76.09;100115.28;4981911;28;20059;-87
2022/11/23 08:27:40;;;;;;;14.23;7.68;;;;;;;9.55;76.43;100090.63;4967938;28;20035;-89
2022/11/23 08:30:06;;;;;;;11.63;6.22;;;;;;;9.54;76.89;100098.44;4967592;28;20038;-88
2022/11/23 08:32:32;;;;;;;8.88;6.03;;;;;;;9.27;77.74;100055.09;4965815;28;20624;-84
2022/11/23 08:34:57;;;;;;;17.40;6.30;;;;;;;9.55;77.42;100107.88;4955707;28;20083;-91
2022/11/23 08:37:22;;;;;;;8.25;6.38;;;;;;;9.45;78.35;100105.78;4969054;28;20416;-83
2022/11/23 08:39:48;;;;;;;10.95;5.20;;;;;;;9.50;78.03;100121.03;4972659;28;20042;-86
2022/11/23 08:42:13;;;;;;;9.85;6.03;;;;;;;9.58;77.69;100125.78;4973299;28;20037;-84
2022/11/23 08:44:39;;;;;;;13.40;6.68;;;;;;;9.55;77.16;100121.63;4957333;28;20104;-92
2022/11/23 08:47:04;;;;;;;15.27;7.70;;;;;;;9.47;76.36;100108.28;4953110;28;20051;-90
2022/11/23 08:49:30;;;;;;;12.60;5.82;;;;;;;9.48;76.46;100115.09;4988812;28;20031;-92
2022/11/23 08:51:55;;;;;;;8.63;5.35;;;;;;;9.57;77.12;100121.53;4960027;28;20050;-90
2022/11/23 08:54:23;;;;;;;8.95;6.40;;;;;;;9.60;77.77;100122.19;4980586;28;20067;-88
2022/11/23 08:56:49;;;;;;;8.77;5.28;;;;;;;9.55;76.57;100124.22;4974252;28;20081;-86
2022/11/23 08:59:16;;;;;;;14.65;6.00;;;;;;;9.65;75.97;100127.97;4971666;28;20026;-86
2022/11/23 09:01:42;;;;;;;13.95;7.88;;;;;;;9.61;76.61;100135.94;4957176;28;20093;-92
2022/11/23 09:04:07;;;;;;;12.73;6.53;;;;;;;9.61;77.45;100135.94;4973380;28;20031;-85
2022/11/23 09:06:33;;;;;;;17.83;6.85;;;;;;;9.55;77.57;100110.47;4972913;28;20035;-90
2022/11/23 09:08:59;;;;;;;11.05;7.68;;;;;;;9.26;76.08;100063.78;4951786;28;20413;-86
2022/11/23 09:11:25;;;;;;;12.40;6.85;;;;;;;9.73;75.61;100119.78;4972074;28;20023;-88
2022/11/23 09:13:51;;;;;;;14.18;6.93;;;;;;;9.66;75.97;100110.72;4955372;28;20394;-91
2022/11/23 09:16:16;;;;;;;9.20;5.15;;;;;;;9.70;76.17;100102.72;4957196;28;20151;-87
2022/11/23 09:18:42;;;;;;;13.65;7.18;;;;;;;9.66;75.88;100097.81;4953254;28;20042;-90
2022/11/23 09:21:07;;;;;;;10.73;6.25;;;;;;;9.45;75.52;100066.22;4971810;28;20568;-88
2022/11/23 09:23:33;;;;;;;13.32;6.75;;;;;;;9.51;76.27;100077.94;4969551;28;20082;-88
2022/11/23 09:25:59;;;;;;;11.02;6.15;;;;;;;9.56;76.02;100078.56;4969927;28;20073;-89
2022/11/23 09:28:26;;;;;;;11.77;6.00;;;;;;;9.70;75.79;100094.97;4968865;28;20030;-87
2022/11/23 09:30:52;;;;;;;15.13;7.85;;;;;;;9.33;76.08;100023.78;4964889;28;20043;-80
2022/11/23 09:33:17;;;;;;;11.68;6.63;;;;;;;9.41;76.07;100036.31;4953301;28;20031;-82
2022/11/23 09:35:43;;;;;;;13.80;7.20;;;;;;;9.58;75.85;100053.47;4959697;28;20082;-83
2022/11/23 09:38:08;;;;;;;13.45;6.03;;;;;;;9.83;76.07;100065.88;4976743;28;20464;-83
2022/11/23 09:40:38;;;;;;;12.55;6.75;;;;;;;9.66;75.41;100041.81;4987336;28;20046;-88
2022/11/23 09:43:12;;;;;;;13.05;6.32;;;;;;;9.82;78.72;100072.81;4970566;28;20161;-93
2022/11/23 09:45:49;;;;;;;12.30;7.35;;;;;;;9.82;75.24;100077.97;4961850;28;20028;-92
2022/11/23 09:48:39;;;;;;;11.43;6.90;;;;;;;9.79;76.19;100078.16;4964523;28;20054;-93
2022/11/23 09:51:13;;;;;;;11.75;6.43;;;;;;;9.70;75.35;100063.13;4987482;28;20031;-89
2022/11/23 09:53:44;;;;;;;10.00;5.15;;;;;;;9.71;76.07;100055.31;4971082;28;20485;-86
2022/11/23 09:56:19;;;;;;;11.93;7.10;;;;;;;9.76;79.47;100027.50;4970708;28;20153;-86
2022/11/23 09:58:44;;;;;;;6.13;4.20;;;;;;;9.77;76.18;100023.97;4969473;28;20042;-87
2022/11/23 10:01:12;;;;;;;12.70;6.53;;;;;;;9.92;76.08;100053.28;4964404;28;20027;-91
2022/11/23 10:03:38;;;;;;;9.95;6.32;;;;;;;9.91;75.70;100050.78;4952046;28;20409;-89
2022/11/23 10:06:16;;;;;;;10.20;5.28;;;;;;;9.81;75.94;100053.06;4966705;28;20497;-89
2022/11/23 10:08:53;;;;;;;13.52;5.95;;;;;;;9.81;75.27;100047.06;4971231;28;20105;-96
2022/11/23 10:11:38;;;;;;;11.05;6.53;;;;;;;9.81;75.47;100037.56;4988484;28;20059;-83
2022/11/23 10:14:25;;;;;;;16.42;9.32;;;;;;;9.62;75.68;100018.81;4982715;28;20035;-89
2022/11/23 10:16:57;;;;;;;8.40;5.93;;;;;;;9.82;75.71;100053.88;4983417;28;20035;-88
2022/11/23 10:20:08;;;;;;;14.77;7.25;;;;;;;9.78;75.93;100053.22;4978308;28;20053;-87
2022/11/23 10:22:40;;;;;;;11.57;5.82;;;;;;;9.72;76.29;100048.38;4963425;28;20113;-87
2022/11/23 10:25:16;;;;;;;12.43;7.13;;;;;;;9.71;76.49;100028.66;4980429;28;20406;-82
2022/11/23 10:27:43;;;;;;;10.32;7.25;;;;;;;9.83;76.64;100027.13;4950688;28;20037;-85
2022/11/23 10:30:12;;;;;;;10.15;5.45;;;;;;;9.84;76.67;100029.66;4982781;28;20085;-92
2022/11/23 10:32:45;;;;;;;12.77;7.30;;;;;;;9.64;76.72;100022.16;4969242;28;20035;-87
2022/11/23 10:35:16;;;;;;;11.52;5.05;;;;;;;9.83;75.30;100043.47;4972629;28;20074;-84
2022/11/23 10:37:41;;;;;;;12.57;5.47;;;;;;;9.70;75.46;100037.31;4944725;28;20448;-85
2022/11/23 10:40:26;;;;;;;13.13;6.10;;;;;;;9.80;75.67;100047.97;4970294;28;20118;-85
2022/11/23 10:42:57;;;;;;;13.05;7.07;;;;;;;9.55;75.78;99983.94;4962661;28;20035;-82
2022/11/23 10:45:24;;;;;;;9.20;5.00;;;;;;;9.80;76.03;100035.88;4969257;28;20072;-86
2022/11/23 10:47:51;;;;;;;13.02;8.52;;;;;;;9.83;76.88;100021.97;4948275;28;20590;-84
2022/11/23 10:50:23;;;;;;;12.40;6.93;;;;;;;9.98;76.49;100027.13;4970616;28;20035;-83
2022/11/23 10:52:59;;;;;;;10.95;6.53;;;;;;;9.93;75.98;100021.41;4962730;28;20115;-88
2022/11/23 10:55:29;;;;;;;8.57;4.57;;;;;;;9.83;74.31;100020.22;4955490;28;20027;-87
2022/11/23 10:57:55;;;;;;;13.65;7.03;;;;;;;9.90;75.75;100039.63;4982906;28;20027;-91
2022/11/23 11:00:21;;;;;;;13.43;5.10;;;;;;;9.95;74.75;100027.31;4979541;28;20137;-91
2022/11/23 11:02:56;;;;;;;8.48;5.32;;;;;;;9.89;74.76;100012.13;4969175;28;20041;-86
2022/11/23 11:05:25;;;;;;;16.70;6.40;;;;;;;9.91;74.94;100046.47;4969545;28;20019;-95
2022/11/23 11:07:51;;;;;;;8.23;5.07;;;;;;;9.82;74.82;100041.78;4967977;28;20035;-88
2022/11/23 11:10:36;;;;;;;15.65;6.78;;;;;;;9.81;76.03;100029.81;4950844;28;20159;-90
2022/11/23 11:13:02;;;;;;;11.32;6.05;;;;;;;9.72;75.83;100012.22;4967578;28;20030;-95
2022/11/23 11:15:28;;;;;;;15.98;6.97;;;;;;;9.80;75.33;100035.88;4953140;28;20027;-93
2022/11/23 11:17:57;;;;;;;11.20;6.00;;;;;;;9.77;75.43;100033.47;4968827;28;20042;-87
2022/11/23 11:20:32;;;;;;;11.30;6.93;;;;;;;9.86;75.75;100032.97;4969252;28;20082;-88
2022/11/23 11:23:15;;;;;;;5.63;4.38;;;;;;;9.85;75.91;100022.75;4982107;28;20030;-87
2022/11/23 11:25:40;;;;;;;;;;;;;;;9.84;76.19;100027.06;4967393;28;20055;-86
2022/11/23 11:28:24;;;;;;;7.88;4.70;;;;;;;9.55;76.45;99981.34;4969069;28;20435;-82